sensor_id;sensor_type;location;lat;lon;timestamp;pressure;altitude;pressure_sealevel;temperature;humidity
11415;BME280;5763;42.714;23.244;2023-02-01T00:00:12;94639.91;;;2.60;71.54
11415;BME280;5763;42.714;23.244;2023-02-01T00:02:39;94641.88;;;2.56;71.63
11415;BME280;5763;42.714;23.244;2023-02-01T00:05:07;94646.09;;;2.57;71.71
11415;BME280;5763;42.714;23.244;2023-02-01T00:07:34;94640.66;;;2.64;71.05
11415;BME280;5763;42.714;23.244;2023-02-01T00:10:00;94642.22;;;2.58;70.93
11415;BME280;5763;42.714;23.244;2023-02-01T00:12:29;94649.88;;;2.63;70.72
11415;BME280;5763;42.714;23.244;2023-02-01T00:14:57;94659.56;;;2.64;70.14
11415;BME280;5763;42.714;23.244;2023-02-01T00:17:24;94659.59;;;2.57;70.17
11415;BME280;5763;42.714;23.244;2023-02-01T00:19:51;94653.75;;;2.62;69.68
11415;BME280;5763;42.714;23.244;2023-02-01T00:22:17;94657.56;;;2.68;69.61
11415;BME280;5763;42.714;23.244;2023-02-01T00:24:44;94651.38;;;2.71;68.57
11415;BME280;5763;42.714;23.244;2023-02-01T00:27:11;94652.16;;;2.68;68.19
11415;BME280;5763;42.714;23.244;2023-02-01T00:29:43;94657.50;;;2.75;67.95
11415;BME280;5763;42.714;23.244;2023-02-01T00:32:11;94657.56;;;2.72;67.66
11415;BME280;5763;42.714;23.244;2023-02-01T00:34:38;94659.94;;;2.63;67.68
11415;BME280;5763;42.714;23.244;2023-02-01T00:37:05;94651.09;;;2.59;67.84
11415;BME280;5763;42.714;23.244;2023-02-01T00:39:33;94650.41;;;2.51;67.62
11415;BME280;5763;42.714;23.244;2023-02-01T00:42:00;94647.34;;;2.49;67.60
11415;BME280;5763;42.714;23.244;2023-02-01T00:44:28;94647.38;;;2.46;67.27
11415;BME280;5763;42.714;23.244;2023-02-01T00:46:58;94645.06;;;2.44;67.34
11415;BME280;5763;42.714;23.244;2023-02-01T00:49:27;94648.91;;;2.47;67.21
11415;BME280;5763;42.714;23.244;2023-02-01T00:51:54;94641.94;;;2.49;66.51
11415;BME280;5763;42.714;23.244;2023-02-01T00:54:21;94644.69;;;2.42;65.79
11415;BME280;5763;42.714;23.244;2023-02-01T00:56:48;94637.00;;;2.41;65.82
11415;BME280;5763;42.714;23.244;2023-02-01T00:59:15;94654.84;;;2.28;65.85
11415;BME280;5763;42.714;23.244;2023-02-01T01:01:41;94644.09;;;2.17;65.90
11415;BME280;5763;42.714;23.244;2023-02-01T01:04:08;94637.19;;;2.16;66.12
11415;BME280;5763;42.714;23.244;2023-02-01T01:06:37;94636.88;;;2.04;66.42
11415;BME280;5763;42.714;23.244;2023-02-01T01:09:06;94637.31;;;1.99;66.25
11415;BME280;5763;42.714;23.244;2023-02-01T01:11:35;94632.34;;;1.94;66.32
11415;BME280;5763;42.714;23.244;2023-02-01T01:14:03;94636.97;;;1.93;66.04
11415;BME280;5763;42.714;23.244;2023-02-01T01:16:31;94628.19;;;1.82;65.30
11415;BME280;5763;42.714;23.244;2023-02-01T01:18:58;94628.19;;;1.82;65.02
11415;BME280;5763;42.714;23.244;2023-02-01T01:21:25;94633.94;;;1.84;64.93
11415;BME280;5763;42.714;23.244;2023-02-01T01:23:54;94632.78;;;1.85;64.56
11415;BME280;5763;42.714;23.244;2023-02-01T01:26:21;94626.22;;;1.86;64.38
11415;BME280;5763;42.714;23.244;2023-02-01T01:28:49;94645.06;;;1.93;63.33
11415;BME280;5763;42.714;23.244;2023-02-01T01:31:17;94623.56;;;1.79;63.35
11415;BME280;5763;42.714;23.244;2023-02-01T01:33:44;94630.78;;;1.96;63.21
11415;BME280;5763;42.714;23.244;2023-02-01T01:36:11;94641.97;;;1.95;62.86
11415;BME280;5763;42.714;23.244;2023-02-01T01:38:38;94646.19;;;1.99;62.80
11415;BME280;5763;42.714;23.244;2023-02-01T01:41:08;94648.09;;;1.99;62.62
11415;BME280;5763;42.714;23.244;2023-02-01T01:43:50;94647.38;;;1.95;62.62
11415;BME280;5763;42.714;23.244;2023-02-01T01:46:18;94643.16;;;1.90;62.86
11415;BME280;5763;42.714;23.244;2023-02-01T01:48:46;94654.41;;;1.78;63.28
11415;BME280;5763;42.714;23.244;2023-02-01T01:51:17;94649.78;;;1.75;63.22
11415;BME280;5763;42.714;23.244;2023-02-01T01:53:52;94629.09;;;1.58;63.65
11415;BME280;5763;42.714;23.244;2023-02-01T01:56:22;94650.59;;;1.72;63.72
11415;BME280;5763;42.714;23.244;2023-02-01T01:58:52;94642.94;;;1.60;64.16
11415;BME280;5763;42.714;23.244;2023-02-01T02:01:19;94640.63;;;1.66;64.06
11415;BME280;5763;42.714;23.244;2023-02-01T02:03:46;94647.91;;;1.65;64.06
11415;BME280;5763;42.714;23.244;2023-02-01T02:06:21;94634.44;;;1.69;64.01
11415;BME280;5763;42.714;23.244;2023-02-01T02:08:51;94633.63;;;1.75;63.78
11415;BME280;5763;42.714;23.244;2023-02-01T02:11:18;94626.34;;;1.69;64.13
11415;BME280;5763;42.714;23.244;2023-02-01T02:13:48;94627.84;;;1.73;63.73
11415;BME280;5763;42.714;23.244;2023-02-01T02:16:27;94627.41;;;1.82;63.54
11415;BME280;5763;42.714;23.244;2023-02-01T02:19:17;94635.16;;;1.76;63.22
11415;BME280;5763;42.714;23.244;2023-02-01T02:22:03;94627.84;;;1.73;63.93
11415;BME280;5763;42.714;23.244;2023-02-01T02:25:01;94646.34;;;1.71;64.41
11415;BME280;5763;42.714;23.244;2023-02-01T02:27:41;94642.16;;;1.67;64.72
11415;BME280;5763;42.714;23.244;2023-02-01T02:30:35;94640.94;;;1.71;65.04
11415;BME280;5763;42.714;23.244;2023-02-01T02:36:31;94648.34;;;1.64;65.06
11415;BME280;5763;42.714;23.244;2023-02-01T02:39:08;94631.31;;;1.74;64.70
11415;BME280;5763;42.714;23.244;2023-02-01T02:41:47;94635.16;;;1.80;64.37
11415;BME280;5763;42.714;23.244;2023-02-01T02:44:39;94631.31;;;1.74;64.35
11415;BME280;5763;42.714;23.244;2023-02-01T02:47:32;94631.31;;;1.77;64.55
11415;BME280;5763;42.714;23.244;2023-02-01T02:50:11;94641.69;;;1.82;64.58
11415;BME280;5763;42.714;23.244;2023-02-01T02:53:03;94645.50;;;1.81;64.31
11415;BME280;5763;42.714;23.244;2023-02-01T02:55:51;94648.22;;;1.81;64.23
11415;BME280;5763;42.714;23.244;2023-02-01T02:58:32;94639.41;;;1.77;63.60
11415;BME280;5763;42.714;23.244;2023-02-01T03:01:16;94639.06;;;1.68;63.66
11415;BME280;5763;42.714;23.244;2023-02-01T03:04:01;94645.22;;;1.72;63.35
11415;BME280;5763;42.714;23.244;2023-02-01T03:06:34;94649.44;;;1.73;63.22
11415;BME280;5763;42.714;23.244;2023-02-01T03:09:05;94655.56;;;1.77;63.19
11415;BME280;5763;42.714;23.244;2023-02-01T03:11:35;94625.25;;;1.59;62.95
11415;BME280;5763;42.714;23.244;2023-02-01T03:14:17;94654.34;;;1.85;62.81
11415;BME280;5763;42.714;23.244;2023-02-01T03:16:49;94652.06;;;1.87;62.86
11415;BME280;5763;42.714;23.244;2023-02-01T03:19:20;94660.53;;;1.86;62.79
11415;BME280;5763;42.714;23.244;2023-02-01T03:21:50;94655.88;;;1.86;62.81
11415;BME280;5763;42.714;23.244;2023-02-01T03:24:24;94665.50;;;1.91;63.00
11415;BME280;5763;42.714;23.244;2023-02-01T03:27:02;94654.44;;;1.75;63.44
11415;BME280;5763;42.714;23.244;2023-02-01T03:29:37;94662.09;;;1.76;63.06
11415;BME280;5763;42.714;23.244;2023-02-01T03:32:05;94649.44;;;1.73;63.20
11415;BME280;5763;42.714;23.244;2023-02-01T03:34:32;94631.81;;;1.55;63.09
11415;BME280;5763;42.714;23.244;2023-02-01T03:37:02;94663.66;;;1.77;63.21
11415;BME280;5763;42.714;23.244;2023-02-01T03:39:34;94660.59;;;1.75;63.20
11415;BME280;5763;42.714;23.244;2023-02-01T03:42:04;94660.59;;;1.75;63.21
11415;BME280;5763;42.714;23.244;2023-02-01T03:44:39;94648.72;;;1.62;63.35
11415;BME280;5763;42.714;23.244;2023-02-01T03:47:12;94661.75;;;1.74;63.20
11415;BME280;5763;42.714;23.244;2023-02-01T03:49:43;94662.56;;;1.68;63.40
11415;BME280;5763;42.714;23.244;2023-02-01T03:52:14;94657.88;;;1.75;63.48
11415;BME280;5763;42.714;23.244;2023-02-01T03:54:45;94665.19;;;1.78;63.22
11415;BME280;5763;42.714;23.244;2023-02-01T03:57:16;94661.28;;;1.90;63.08
11415;BME280;5763;42.714;23.244;2023-02-01T03:59:46;94661.25;;;1.93;62.84
11415;BME280;5763;42.714;23.244;2023-02-01T04:02:12;94671.66;;;1.91;62.98
11415;BME280;5763;42.714;23.244;2023-02-01T04:04:39;94678.19;;;1.94;63.01
11415;BME280;5763;42.714;23.244;2023-02-01T04:07:06;94672.03;;;1.93;63.27
11415;BME280;5763;42.714;23.244;2023-02-01T04:09:32;94675.09;;;1.95;63.34
11415;BME280;5763;42.714;23.244;2023-02-01T04:12:00;94677.06;;;1.91;63.53
11415;BME280;5763;42.714;23.244;2023-02-01T04:14:27;94672.03;;;1.93;63.76
11415;BME280;5763;42.714;23.244;2023-02-01T04:16:54;94677.44;;;1.93;63.49
11415;BME280;5763;42.714;23.244;2023-02-01T04:19:21;94667.06;;;1.88;63.63
11415;BME280;5763;42.714;23.244;2023-02-01T04:21:47;94673.56;;;1.94;63.95
11415;BME280;5763;42.714;23.244;2023-02-01T04:24:14;94683.53;;;2.04;63.84
11415;BME280;5763;42.714;23.244;2023-02-01T04:26:41;94674.25;;;2.09;63.75
11415;BME280;5763;42.714;23.244;2023-02-01T04:29:10;94675.03;;;2.09;63.83
11415;BME280;5763;42.714;23.244;2023-02-01T04:31:37;94669.25;;;2.07;64.00
11415;BME280;5763;42.714;23.244;2023-02-01T04:34:03;94676.91;;;2.16;64.17
11415;BME280;5763;42.714;23.244;2023-02-01T04:36:30;94635.81;;;1.94;64.02
11415;BME280;5763;42.714;23.244;2023-02-01T04:38:57;94654.56;;;2.12;64.25
11415;BME280;5763;42.714;23.244;2023-02-01T04:41:23;94681.88;;;2.17;64.25
11415;BME280;5763;42.714;23.244;2023-02-01T04:43:51;94674.59;;;2.14;64.68
11415;BME280;5763;42.714;23.244;2023-02-01T04:46:19;94678.06;;;2.15;64.86
11415;BME280;5763;42.714;23.244;2023-02-01T04:48:46;94677.63;;;2.20;65.08
11415;BME280;5763;42.714;23.244;2023-02-01T04:51:13;94678.38;;;2.24;65.15
11415;BME280;5763;42.714;23.244;2023-02-01T04:53:40;94682.19;;;2.30;65.07
11415;BME280;5763;42.714;23.244;2023-02-01T04:56:07;94683.38;;;2.25;65.36
11415;BME280;5763;42.714;23.244;2023-02-01T04:58:34;94691.84;;;2.31;65.05
11415;BME280;5763;42.714;23.244;2023-02-01T05:01:02;94686.44;;;2.31;65.20
11415;BME280;5763;42.714;23.244;2023-02-01T05:03:31;94697.53;;;2.43;64.89
11415;BME280;5763;42.714;23.244;2023-02-01T05:05:58;94692.50;;;2.45;64.43
11415;BME280;5763;42.714;23.244;2023-02-01T05:08:25;94696.78;;;2.39;64.29
11415;BME280;5763;42.714;23.244;2023-02-01T05:10:54;94698.25;;;2.47;64.17
11415;BME280;5763;42.714;23.244;2023-02-01T05:13:20;94692.84;;;2.47;64.33
11415;BME280;5763;42.714;23.244;2023-02-01T05:16:05;94706.75;;;2.49;63.81
11415;BME280;5763;42.714;23.244;2023-02-01T05:18:33;94705.19;;;2.52;64.10
11415;BME280;5763;42.714;23.244;2023-02-01T05:21:00;94708.28;;;2.50;64.17
11415;BME280;5763;42.714;23.244;2023-02-01T05:23:27;94699.03;;;2.48;64.30
11415;BME280;5763;42.714;23.244;2023-02-01T05:25:58;94705.59;;;2.47;64.19
11415;BME280;5763;42.714;23.244;2023-02-01T05:28:25;94700.25;;;2.43;64.75
11415;BME280;5763;42.714;23.244;2023-02-01T05:30:52;94706.38;;;2.44;64.63
11415;BME280;5763;42.714;23.244;2023-02-01T05:33:19;94701.00;;;2.44;64.90
11415;BME280;5763;42.714;23.244;2023-02-01T05:35:47;94694.03;;;2.46;65.07
11415;BME280;5763;42.714;23.244;2023-02-01T05:38:15;94704.03;;;2.49;65.06
11415;BME280;5763;42.714;23.244;2023-02-01T05:40:42;94701.69;;;2.51;65.02
11415;BME280;5763;42.714;23.244;2023-02-01T05:43:14;94695.44;;;2.61;64.89
11415;BME280;5763;42.714;23.244;2023-02-01T05:45:41;94696.94;;;2.69;64.91
11415;BME280;5763;42.714;23.244;2023-02-01T05:48:08;94704.53;;;2.81;64.04
11415;BME280;5763;42.714;23.244;2023-02-01T05:50:34;94699.84;;;2.89;63.60
11415;BME280;5763;42.714;23.244;2023-02-01T05:53:02;94708.28;;;2.94;63.91
11415;BME280;5763;42.714;23.244;2023-02-01T05:55:29;94715.22;;;2.95;62.91
11415;BME280;5763;42.714;23.244;2023-02-01T05:57:56;94712.59;;;2.85;63.35
11415;BME280;5763;42.714;23.244;2023-02-01T06:00:23;94712.59;;;2.85;63.38
11415;BME280;5763;42.714;23.244;2023-02-01T06:02:50;94712.59;;;2.85;63.54
11415;BME280;5763;42.714;23.244;2023-02-01T06:05:17;94715.69;;;2.87;63.76
11415;BME280;5763;42.714;23.244;2023-02-01T06:07:44;94715.69;;;2.87;63.65
11415;BME280;5763;42.714;23.244;2023-02-01T06:10:12;94711.78;;;2.91;63.65
11415;BME280;5763;42.714;23.244;2023-02-01T06:12:38;94709.50;;;2.86;63.56
11415;BME280;5763;42.714;23.244;2023-02-01T06:15:06;94711.84;;;2.84;63.40
11415;BME280;5763;42.714;23.244;2023-02-01T06:17:33;94709.84;;;2.92;63.31
11415;BME280;5763;42.714;23.244;2023-02-01T06:20:00;94713.28;;;2.96;62.99
11415;BME280;5763;42.714;23.244;2023-02-01T06:22:27;94716.69;;;3.03;63.02
11415;BME280;5763;42.714;23.244;2023-02-01T06:24:53;94722.81;;;3.07;62.87
11415;BME280;5763;42.714;23.244;2023-02-01T06:27:21;94721.34;;;3.03;62.84
11415;BME280;5763;42.714;23.244;2023-02-01T06:29:48;94711.38;;;2.93;63.03
11415;BME280;5763;42.714;23.244;2023-02-01T06:32:15;94716.00;;;2.92;62.63
11415;BME280;5763;42.714;23.244;2023-02-01T06:34:42;94699.03;;;2.92;62.48
11415;BME280;5763;42.714;23.244;2023-02-01T06:37:09;94724.44;;;3.01;62.77
11415;BME280;5763;42.714;23.244;2023-02-01T06:39:37;94727.88;;;3.05;62.77
11415;BME280;5763;42.714;23.244;2023-02-01T06:42:03;94733.28;;;3.05;62.70
11415;BME280;5763;42.714;23.244;2023-02-01T06:44:32;94725.28;;;2.91;62.65
11415;BME280;5763;42.714;23.244;2023-02-01T06:46:58;94726.03;;;2.95;62.85
11415;BME280;5763;42.714;23.244;2023-02-01T06:49:25;94733.28;;;3.02;62.97
11415;BME280;5763;42.714;23.244;2023-02-01T06:51:52;94734.06;;;3.02;63.12
11415;BME280;5763;42.714;23.244;2023-02-01T06:54:19;94732.88;;;3.03;63.07
11415;BME280;5763;42.714;23.244;2023-02-01T06:56:45;94743.66;;;3.10;62.83
11415;BME280;5763;42.714;23.244;2023-02-01T06:59:12;94752.84;;;3.16;62.10
11415;BME280;5763;42.714;23.244;2023-02-01T07:01:40;94757.97;;;3.07;62.08
11415;BME280;5763;42.714;23.244;2023-02-01T07:04:09;94757.13;;;3.14;61.99
11415;BME280;5763;42.714;23.244;2023-02-01T07:06:36;94759.06;;;3.13;62.11
11415;BME280;5763;42.714;23.244;2023-02-01T07:09:03;94773.44;;;3.03;62.04
11415;BME280;5763;42.714;23.244;2023-02-01T07:11:30;94769.16;;;3.06;62.03
11415;BME280;5763;42.714;23.244;2023-02-01T07:13:57;94773.00;;;3.08;61.93
11415;BME280;5763;42.714;23.244;2023-02-01T07:16:24;94770.59;;;3.17;61.95
11415;BME280;5763;42.714;23.244;2023-02-01T07:18:52;94772.88;;;3.22;61.72
11415;BME280;5763;42.714;23.244;2023-02-01T07:21:19;94781.78;;;3.19;61.35
11415;BME280;5763;42.714;23.244;2023-02-01T07:23:46;94782.19;;;3.18;61.74
11415;BME280;5763;42.714;23.244;2023-02-01T07:26:14;94787.56;;;3.21;61.51
11415;BME280;5763;42.714;23.244;2023-02-01T07:28:42;94784.88;;;3.21;61.33
11415;BME280;5763;42.714;23.244;2023-02-01T07:31:10;94781.38;;;3.21;61.79
11415;BME280;5763;42.714;23.244;2023-02-01T07:33:38;94782.91;;;3.25;61.24
11415;BME280;5763;42.714;23.244;2023-02-01T07:36:11;94776.28;;;3.30;61.07
11415;BME280;5763;42.714;23.244;2023-02-01T07:38:38;94778.94;;;3.33;60.90
11415;BME280;5763;42.714;23.244;2023-02-01T07:41:05;94791.94;;;3.45;60.35
11415;BME280;5763;42.714;23.244;2023-02-01T07:43:34;94782.63;;;3.53;59.84
11415;BME280;5763;42.714;23.244;2023-02-01T07:46:01;94798.81;;;3.57;60.09
11415;BME280;5763;42.714;23.244;2023-02-01T07:48:30;94791.47;;;3.57;59.98
11415;BME280;5763;42.714;23.244;2023-02-01T07:50:57;94790.72;;;3.53;60.29
11415;BME280;5763;42.714;23.244;2023-02-01T07:53:27;94792.56;;;3.63;59.81
11415;BME280;5763;42.714;23.244;2023-02-01T07:55:54;94788.69;;;3.64;59.53
11415;BME280;5763;42.714;23.244;2023-02-01T07:58:22;94800.53;;;3.77;59.11
11415;BME280;5763;42.714;23.244;2023-02-01T08:00:49;94799.41;;;3.75;58.52
11415;BME280;5763;42.714;23.244;2023-02-01T08:03:33;94808.00;;;3.63;59.45
11415;BME280;5763;42.714;23.244;2023-02-01T08:06:00;94814.16;;;3.67;59.14
11415;BME280;5763;42.714;23.244;2023-02-01T08:08:28;94814.56;;;3.65;59.20
11415;BME280;5763;42.714;23.244;2023-02-01T08:10:57;94820.34;;;3.67;58.71
11415;BME280;5763;42.714;23.244;2023-02-01T08:13:24;94811.09;;;3.65;58.47
11415;BME280;5763;42.714;23.244;2023-02-01T08:15:51;94814.06;;;3.77;58.35
11415;BME280;5763;42.714;23.244;2023-02-01T08:18:18;94802.84;;;3.79;58.73
11415;BME280;5763;42.714;23.244;2023-02-01T08:20:46;94799.66;;;3.87;58.87
11415;BME280;5763;42.714;23.244;2023-02-01T08:23:12;94806.94;;;3.90;58.08
11415;BME280;5763;42.714;23.244;2023-02-01T08:25:41;94804.63;;;3.92;58.11
11415;BME280;5763;42.714;23.244;2023-02-01T08:28:08;94804.53;;;3.99;57.94
11415;BME280;5763;42.714;23.244;2023-02-01T08:30:36;94809.88;;;4.03;58.11
11415;BME280;5763;42.714;23.244;2023-02-01T08:33:03;94812.63;;;3.99;57.58
11415;BME280;5763;42.714;23.244;2023-02-01T08:35:31;94819.91;;;4.06;57.64
11415;BME280;5763;42.714;23.244;2023-02-01T08:37:58;94816.72;;;4.14;57.83
11415;BME280;5763;42.714;23.244;2023-02-01T08:40:24;94824.69;;;4.28;56.95
11415;BME280;5763;42.714;23.244;2023-02-01T08:42:53;94826.03;;;4.43;56.40
11415;BME280;5763;42.714;23.244;2023-02-01T08:45:20;94825.34;;;4.66;56.35
11415;BME280;5763;42.714;23.244;2023-02-01T08:47:49;94825.31;;;4.92;54.90
11415;BME280;5763;42.714;23.244;2023-02-01T08:50:16;94807.38;;;5.25;53.50
11415;BME280;5763;42.714;23.244;2023-02-01T08:52:43;94804.81;;;5.83;51.69
11415;BME280;5763;42.714;23.244;2023-02-01T08:55:11;94809.41;;;6.64;50.15
11415;BME280;5763;42.714;23.244;2023-02-01T08:57:38;94816.59;;;7.38;48.09
11415;BME280;5763;42.714;23.244;2023-02-01T09:00:09;94811.91;;;7.99;46.10
11415;BME280;5763;42.714;23.244;2023-02-01T09:02:37;94812.44;;;8.51;45.27
11415;BME280;5763;42.714;23.244;2023-02-01T09:05:04;94815.94;;;8.52;44.15
11415;BME280;5763;42.714;23.244;2023-02-01T09:07:32;94823.91;;;8.59;43.93
11415;BME280;5763;42.714;23.244;2023-02-01T09:09:59;94817.09;;;7.81;44.54
11415;BME280;5763;42.714;23.244;2023-02-01T09:12:27;94815.72;;;6.93;46.60
11415;BME280;5763;42.714;23.244;2023-02-01T09:14:54;94813.84;;;6.74;47.29
11415;BME280;5763;42.714;23.244;2023-02-01T09:17:22;94816.56;;;6.55;48.24
11415;BME280;5763;42.714;23.244;2023-02-01T09:19:49;94816.44;;;6.42;48.35
11415;BME280;5763;42.714;23.244;2023-02-01T09:22:16;94840.00;;;6.49;48.11
11415;BME280;5763;42.714;23.244;2023-02-01T09:24:43;94827.25;;;6.26;48.17
11415;BME280;5763;42.714;23.244;2023-02-01T09:27:10;94819.81;;;6.30;47.70
11415;BME280;5763;42.714;23.244;2023-02-01T09:29:37;94810.91;;;6.65;47.66
11415;BME280;5763;42.714;23.244;2023-02-01T09:32:04;94810.66;;;7.27;46.17
11415;BME280;5763;42.714;23.244;2023-02-01T09:34:33;94809.47;;;7.60;44.72
11415;BME280;5763;42.714;23.244;2023-02-01T09:37:00;94796.66;;;7.73;44.35
11415;BME280;5763;42.714;23.244;2023-02-01T09:39:27;94804.34;;;7.62;44.55
11415;BME280;5763;42.714;23.244;2023-02-01T09:42:02;94794.88;;;7.67;45.05
11415;BME280;5763;42.714;23.244;2023-02-01T09:44:56;94793.66;;;7.84;44.42
11415;BME280;5763;42.714;23.244;2023-02-01T09:47:30;94786.72;;;7.95;44.45
11415;BME280;5763;42.714;23.244;2023-02-01T09:50:01;94793.41;;;8.07;43.77
11415;BME280;5763;42.714;23.244;2023-02-01T09:52:34;94782.03;;;7.67;43.55
11415;BME280;5763;42.714;23.244;2023-02-01T09:55:05;94791.28;;;7.25;43.88
11415;BME280;5763;42.714;23.244;2023-02-01T09:57:41;94755.03;;;6.96;44.96
11415;BME280;5763;42.714;23.244;2023-02-01T10:00:16;94769.00;;;7.14;45.75
11415;BME280;5763;42.714;23.244;2023-02-01T10:02:44;94758.94;;;7.43;44.74
11415;BME280;5763;42.714;23.244;2023-02-01T10:05:16;94769.19;;;7.52;44.47
11415;BME280;5763;42.714;23.244;2023-02-01T10:07:51;94776.81;;;7.28;45.31
11415;BME280;5763;42.714;23.244;2023-02-01T10:10:28;94764.50;;;6.92;44.45
11415;BME280;5763;42.714;23.244;2023-02-01T10:13:15;94751.75;;;7.65;43.95
11415;BME280;5763;42.714;23.244;2023-02-01T10:16:00;94751.88;;;8.31;42.31
11415;BME280;5763;42.714;23.244;2023-02-01T10:18:51;94754.03;;;8.24;42.17
11415;BME280;5763;42.714;23.244;2023-02-01T10:21:34;94747.19;;;8.32;41.88
11415;BME280;5763;42.714;23.244;2023-02-01T10:24:21;94763.19;;;8.83;40.82
11415;BME280;5763;42.714;23.244;2023-02-01T10:26:55;94753.97;;;9.27;40.13
11415;BME280;5763;42.714;23.244;2023-02-01T10:29:31;94743.69;;;9.31;39.31
11415;BME280;5763;42.714;23.244;2023-02-01T10:31:59;94728.50;;;9.43;39.78
11415;BME280;5763;42.714;23.244;2023-02-01T10:34:30;94740.13;;;9.22;40.66
11415;BME280;5763;42.714;23.244;2023-02-01T10:37:00;94731.06;;;9.00;40.69
11415;BME280;5763;42.714;23.244;2023-02-01T10:39:27;94738.06;;;8.63;40.68
11415;BME280;5763;42.714;23.244;2023-02-01T10:41:55;94743.94;;;8.08;42.11
11415;BME280;5763;42.714;23.244;2023-02-01T10:44:26;94735.41;;;7.65;42.45
11415;BME280;5763;42.714;23.244;2023-02-01T10:46:54;94730.00;;;7.49;43.36
11415;BME280;5763;42.714;23.244;2023-02-01T10:49:26;94731.63;;;7.31;44.34
11415;BME280;5763;42.714;23.244;2023-02-01T10:52:02;94724.00;;;7.26;44.56
11415;BME280;5763;42.714;23.244;2023-02-01T10:54:34;94723.25;;;7.25;44.25
11415;BME280;5763;42.714;23.244;2023-02-01T10:57:01;94732.81;;;7.74;43.05
11415;BME280;5763;42.714;23.244;2023-02-01T10:59:29;94722.53;;;8.23;41.93
11415;BME280;5763;42.714;23.244;2023-02-01T11:02:00;94715.59;;;8.97;40.81
11415;BME280;5763;42.714;23.244;2023-02-01T11:04:32;94730.47;;;9.30;40.30
11415;BME280;5763;42.714;23.244;2023-02-01T11:07:15;94709.91;;;10.06;38.84
11415;BME280;5763;42.714;23.244;2023-02-01T11:09:49;94701.13;;;10.41;36.81
11415;BME280;5763;42.714;23.244;2023-02-01T11:12:25;94686.00;;;10.19;37.02
11415;BME280;5763;42.714;23.244;2023-02-01T11:14:57;94695.13;;;10.03;37.48
11415;BME280;5763;42.714;23.244;2023-02-01T11:17:28;94690.00;;;10.05;37.98
11415;BME280;5763;42.714;23.244;2023-02-01T11:19:59;94678.25;;;10.26;37.78
11415;BME280;5763;42.714;23.244;2023-02-01T11:22:28;94697.84;;;10.03;38.44
11415;BME280;5763;42.714;23.244;2023-02-01T11:24:56;94696.53;;;9.86;38.04
11415;BME280;5763;42.714;23.244;2023-02-01T11:27:24;94672.06;;;10.04;38.76
11415;BME280;5763;42.714;23.244;2023-02-01T11:29:54;94679.53;;;10.65;37.65
11415;BME280;5763;42.714;23.244;2023-02-01T11:32:23;94686.38;;;11.18;37.00
11415;BME280;5763;42.714;23.244;2023-02-01T11:34:54;94677.97;;;10.94;37.15
11415;BME280;5763;42.714;23.244;2023-02-01T11:37:24;94684.19;;;10.95;36.47
11415;BME280;5763;42.714;23.244;2023-02-01T11:39:58;94682.91;;;10.78;36.02
11415;BME280;5763;42.714;23.244;2023-02-01T11:42:28;94687.06;;;10.52;37.34
11415;BME280;5763;42.714;23.244;2023-02-01T11:45:19;94669.47;;;11.10;36.10
11415;BME280;5763;42.714;23.244;2023-02-01T11:47:52;94667.38;;;11.32;35.65
11415;BME280;5763;42.714;23.244;2023-02-01T11:50:25;94677.94;;;11.70;35.27
11415;BME280;5763;42.714;23.244;2023-02-01T11:53:07;94671.88;;;11.84;34.21
11415;BME280;5763;42.714;23.244;2023-02-01T11:55:46;94672.91;;;11.59;34.54
11415;BME280;5763;42.714;23.244;2023-02-01T11:58:36;94670.44;;;11.25;34.63
11415;BME280;5763;42.714;23.244;2023-02-01T12:01:26;94669.19;;;11.08;35.26
11415;BME280;5763;42.714;23.244;2023-02-01T12:06:58;94657.63;;;11.22;35.49
11415;BME280;5763;42.714;23.244;2023-02-01T12:09:41;94675.75;;;10.71;35.84
11415;BME280;5763;42.714;23.244;2023-02-01T12:12:19;94656.81;;;10.95;36.48
11415;BME280;5763;42.714;23.244;2023-02-01T12:18:10;94648.38;;;11.56;34.44
11415;BME280;5763;42.714;23.244;2023-02-01T12:20:54;94669.19;;;12.25;34.26
11415;BME280;5763;42.714;23.244;2023-02-01T12:23:36;94652.66;;;12.85;32.35
11415;BME280;5763;42.714;23.244;2023-02-01T12:26:22;94659.66;;;13.27;32.06
11415;BME280;5763;42.714;23.244;2023-02-01T12:29:11;94656.59;;;13.49;31.55
11415;BME280;5763;42.714;23.244;2023-02-01T12:31:51;94649.41;;;13.89;30.20
11415;BME280;5763;42.714;23.244;2023-02-01T12:34:40;94662.81;;;13.96;30.20
11415;BME280;5763;42.714;23.244;2023-02-01T12:37:18;94669.41;;;13.75;30.57
11415;BME280;5763;42.714;23.244;2023-02-01T12:39:54;94667.31;;;13.70;30.79
11415;BME280;5763;42.714;23.244;2023-02-01T12:42:26;94659.41;;;14.01;30.17
11415;BME280;5763;42.714;23.244;2023-02-01T12:45:04;94656.50;;;14.19;30.13
11415;BME280;5763;42.714;23.244;2023-02-01T12:47:41;94662.41;;;13.89;30.78
11415;BME280;5763;42.714;23.244;2023-02-01T12:50:15;94654.94;;;13.66;30.89
11415;BME280;5763;42.714;23.244;2023-02-01T12:52:49;94661.47;;;15.62;28.43
11415;BME280;5763;42.714;23.244;2023-02-01T12:55:22;94653.81;;;15.72;27.13
11415;BME280;5763;42.714;23.244;2023-02-01T12:57:52;94658.91;;;16.24;26.48
11415;BME280;5763;42.714;23.244;2023-02-01T13:00:26;94653.66;;;16.77;25.37
11415;BME280;5763;42.714;23.244;2023-02-01T13:03:00;94639.25;;;16.17;25.83
11415;BME280;5763;42.714;23.244;2023-02-01T13:05:32;94647.28;;;16.66;25.90
11415;BME280;5763;42.714;23.244;2023-02-01T13:08:03;94656.28;;;16.92;25.72
11415;BME280;5763;42.714;23.244;2023-02-01T13:10:35;94653.34;;;16.70;25.33
11415;BME280;5763;42.714;23.244;2023-02-01T13:13:10;94654.31;;;16.16;26.15
11415;BME280;5763;42.714;23.244;2023-02-01T13:15:42;94645.31;;;16.21;26.08
11415;BME280;5763;42.714;23.244;2023-02-01T13:18:16;94664.63;;;15.95;26.15
11415;BME280;5763;42.714;23.244;2023-02-01T13:20:49;94651.06;;;15.17;26.89
11415;BME280;5763;42.714;23.244;2023-02-01T13:23:24;94646.34;;;14.25;28.29
11415;BME280;5763;42.714;23.244;2023-02-01T13:25:53;94641.38;;;14.15;28.56
11415;BME280;5763;42.714;23.244;2023-02-01T13:28:25;94649.50;;;13.95;29.23
11415;BME280;5763;42.714;23.244;2023-02-01T13:31:03;94646.69;;;13.66;29.65
11415;BME280;5763;42.714;23.244;2023-02-01T13:33:55;94645.03;;;12.98;30.44
11415;BME280;5763;42.714;23.244;2023-02-01T13:36:49;94644.81;;;12.69;31.44
11415;BME280;5763;42.714;23.244;2023-02-01T13:39:46;94632.31;;;12.68;31.49